Time;durP1;ratioP1;P1;durP2;ratioP2;P2;SDS_P1;SDS_P2;PMS_P1;PMS_P2;Temp;Humidity;BMP_temperature;BMP_pressure;BME280_temperature;BME280_humidity;BME280_pressure;Samples;Min_cycle;Max_cycle;Signal;HPM_P1;HPM_P2
2023/11/14 00:02:19;;;;;;;0.57;0.57;;;11.00;99.90;;;;;;5015151;28;20044;-81
2023/11/14 00:04:44;;;;;;;0.30;0.30;;;11.00;99.90;;;;;;5032462;28;20411;-80
2023/11/14 00:07:11;;;;;;;0.40;0.40;;;11.00;99.90;;;;;;5033680;28;20051;-79
2023/11/14 00:09:37;;;;;;;1.73;1.70;;;11.10;99.90;;;;;;5001437;28;20114;-79
2023/11/14 00:12:05;;;;;;;0.68;0.68;;;11.20;99.90;;;;;;5015098;28;20034;-83
2023/11/14 00:14:31;;;;;;;0.43;0.43;;;11.10;99.90;;;;;;5030860;28;20045;-79
2023/11/14 00:17:03;;;;;;;0.70;0.70;;;11.00;99.90;;;;;;5023959;28;20884;-80
2023/11/14 00:19:29;;;;;;;0.30;0.30;;;11.00;99.90;;;;;;5038471;28;20045;-81
2023/11/14 00:21:54;;;;;;;0.40;0.40;;;11.00;99.90;;;;;;5048298;28;20056;-80
2023/11/14 00:24:23;;;;;;;1.42;0.50;;;11.10;99.90;;;;;;5042361;28;20079;-81
2023/11/14 00:26:50;;;;;;;0.95;0.95;;;11.10;99.90;;;;;;5031126;28;20077;-82
2023/11/14 00:29:19;;;;;;;0.40;0.40;;;11.20;99.90;;;;;;5043399;28;20462;-78
2023/11/14 00:31:45;;;;;;;20.00;1.30;;;11.20;99.90;;;;;;5011974;28;20041;-76
2023/11/14 00:34:11;;;;;;;0.43;0.43;;;11.20;99.90;;;;;;5042337;28;20124;-80
2023/11/14 00:36:37;;;;;;;0.80;0.63;;;11.20;99.90;;;;;;5038323;28;20036;-77
2023/11/14 00:39:03;;;;;;;0.80;0.80;;;11.20;99.90;;;;;;5042732;28;20048;-78
2023/11/14 00:41:29;;;;;;;2.92;1.15;;;11.20;99.90;;;;;;5023122;28;20483;-79
2023/11/14 00:43:55;;;;;;;0.47;0.47;;;11.20;99.90;;;;;;5040999;28;20084;-80
2023/11/14 00:46:20;;;;;;;0.32;0.32;;;11.30;99.90;;;;;;5020806;28;20163;-81
2023/11/14 00:48:46;;;;;;;0.40;0.40;;;11.30;99.90;;;;;;5036547;28;20051;-80
2023/11/14 00:51:13;;;;;;;0.32;0.32;;;11.30;99.90;;;;;;5021812;28;20037;-79
2023/11/14 00:53:39;;;;;;;0.70;0.55;;;11.30;99.90;;;;;;5043553;28;20041;-76
2023/11/14 00:56:04;;;;;;;0.40;0.40;;;11.40;99.90;;;;;;5045736;28;20050;-80
2023/11/14 00:58:31;;;;;;;0.20;0.20;;;11.40;99.90;;;;;;5031702;28;20077;-78
2023/11/14 01:00:57;;;;;;;0.40;0.40;;;11.40;99.90;;;;;;5028999;28;20036;-78
2023/11/14 01:03:24;;;;;;;0.32;0.32;;;11.20;99.90;;;;;;5031156;28;20416;-78
2023/11/14 01:05:52;;;;;;;0.40;0.40;;;10.90;99.90;;;;;;5038527;28;20045;-78
2023/11/14 01:08:18;;;;;;;0.40;0.40;;;10.70;99.90;;;;;;5025073;28;20037;-80
2023/11/14 01:10:45;;;;;;;3.22;2.28;;;10.70;99.90;;;;;;5045750;28;20053;-78
2023/11/14 01:13:12;;;;;;;0.40;0.40;;;10.70;99.90;;;;;;5030050;28;21230;-78
2023/11/14 01:15:39;;;;;;;1.45;1.35;;;10.80;99.90;;;;;;5030139;28;20045;-77
2023/11/14 01:18:06;;;;;;;2.25;2.05;;;10.80;99.90;;;;;;5023803;28;20135;-80
2023/11/14 01:20:32;;;;;;;0.75;0.75;;;10.80;99.90;;;;;;5041737;28;20091;-77
2023/11/14 01:22:57;;;;;;;0.40;0.40;;;10.80;99.90;;;;;;5025340;28;20041;-78
2023/11/14 01:25:23;;;;;;;0.35;0.35;;;10.80;99.90;;;;;;5068464;28;20045;-80
2023/11/14 01:27:50;;;;;;;0.40;0.40;;;10.90;99.90;;;;;;5031867;28;20120;-82
2023/11/14 01:30:16;;;;;;;0.40;0.40;;;10.90;99.90;;;;;;5050918;28;20105;-80
2023/11/14 01:32:42;;;;;;;0.30;0.30;;;10.80;99.90;;;;;;5049011;28;20033;-80
2023/11/14 01:35:09;;;;;;;0.52;0.52;;;10.80;99.90;;;;;;5046423;28;20749;-79
2023/11/14 01:37:41;;;;;;;1.35;0.90;;;10.80;99.90;;;;;;5028109;28;20079;-78
2023/11/14 01:40:08;;;;;;;0.65;0.50;;;10.80;99.90;;;;;;5051027;28;20048;-80
2023/11/14 01:42:33;;;;;;;0.50;0.50;;;10.80;99.90;;;;;;5033514;28;20040;-77
2023/11/14 01:44:59;;;;;;;0.30;0.30;;;10.70;99.90;;;;;;5044177;28;20119;-78
2023/11/14 01:47:25;;;;;;;0.50;0.50;;;10.80;99.90;;;;;;5048117;28;20065;-78
2023/11/14 01:49:51;;;;;;;;;;;10.90;99.90;;;;;;5017990;28;20105;-79
2023/11/14 01:52:23;;;;;;;0.35;0.35;;;11.00;99.90;;;;;;5025696;28;19924;-79
2023/11/14 01:54:55;;;;;;;0.40;0.40;;;11.00;99.90;;;;;;5037888;28;20052;-79
2023/11/14 01:57:21;;;;;;;0.82;0.60;;;11.00;99.90;;;;;;5056536;28;20045;-80
2023/11/14 01:59:48;;;;;;;0.55;0.55;;;11.00;99.90;;;;;;5026756;28;20458;-78
2023/11/14 02:02:15;;;;;;;0.30;0.30;;;11.00;99.90;;;;;;5052214;28;20037;-80
2023/11/14 02:04:42;;;;;;;0.50;0.50;;;10.90;99.90;;;;;;5030242;28;20033;-81
2023/11/14 02:07:08;;;;;;;3.53;0.65;;;10.90;99.90;;;;;;5023504;28;20041;-78
2023/11/14 02:09:34;;;;;;;0.35;0.35;;;10.80;99.90;;;;;;5050118;28;20068;-77
2023/11/14 02:12:00;;;;;;;;;;;10.80;99.90;;;;;;5012446;28;20045;-79
2023/11/14 02:14:28;;;;;;;0.60;0.60;;;10.80;99.90;;;;;;5043628;28;21606;-79
2023/11/14 02:16:57;;;;;;;0.28;0.28;;;10.90;99.90;;;;;;5055497;28;20418;-79
2023/11/14 02:19:23;;;;;;;0.40;0.40;;;10.90;99.90;;;;;;5031785;28;20044;-79
2023/11/14 02:21:50;;;;;;;1.17;1.02;;;11.00;99.90;;;;;;5055803;28;20045;-78
2023/11/14 02:24:18;;;;;;;0.90;0.90;;;11.00;99.90;;;;;;5012091;28;20049;-79
2023/11/14 02:26:48;;;;;;;0.30;0.30;;;11.00;99.90;;;;;;5047087;28;20135;-80
2023/11/14 02:29:15;;;;;;;0.77;0.77;;;11.00;99.90;;;;;;5029392;28;20044;-78
2023/11/14 02:31:41;;;;;;;0.30;0.30;;;11.10;99.90;;;;;;5024421;28;20047;-80
2023/11/14 02:34:07;;;;;;;5.53;3.00;;;11.10;99.90;;;;;;5037890;28;20037;-82
2023/11/14 02:36:33;;;;;;;;;;;11.20;99.90;;;;;;5024982;28;20049;-80
2023/11/14 02:39:00;;;;;;;3.70;0.68;;;11.20;99.90;;;;;;5024133;28;19925;-83
2023/11/14 02:41:26;;;;;;;0.40;0.40;;;11.10;99.90;;;;;;5049779;28;20075;-81
2023/11/14 02:43:52;;;;;;;0.60;0.60;;;11.10;99.90;;;;;;5028213;28;20037;-82
2023/11/14 02:46:18;;;;;;;0.60;0.60;;;11.10;99.90;;;;;;5029207;28;20071;-82
2023/11/14 02:48:45;;;;;;;0.57;0.55;;;11.10;99.90;;;;;;5015773;28;20414;-79
2023/11/14 02:51:11;;;;;;;1.48;1.48;;;11.00;99.90;;;;;;5057406;28;20045;-78
2023/11/14 02:53:36;;;;;;;0.40;0.40;;;11.00;99.90;;;;;;5031354;28;20045;-80
2023/11/14 02:56:04;;;;;;;0.47;0.47;;;10.90;99.90;;;;;;5042707;28;20186;-78
2023/11/14 02:58:30;;;;;;;0.40;0.40;;;10.90;99.90;;;;;;5025659;28;20046;-80
2023/11/14 03:00:55;;;;;;;0.30;0.30;;;10.80;99.90;;;;;;5039527;28;20057;-78
2023/11/14 03:03:21;;;;;;;0.40;0.40;;;10.70;99.90;;;;;;5045034;28;20183;-79
2023/11/14 03:05:47;;;;;;;0.20;0.20;;;10.80;99.90;;;;;;5023988;28;20124;-81
2023/11/14 03:08:13;;;;;;;0.40;0.40;;;10.80;99.90;;;;;;5034931;28;20037;-82
2023/11/14 03:10:39;;;;;;;0.73;0.73;;;10.80;99.90;;;;;;5020869;28;20558;-81
2023/11/14 03:13:11;;;;;;;0.47;0.47;;;10.80;99.90;;;;;;5033450;28;20043;-78
2023/11/14 03:15:37;;;;;;;1.05;0.57;;;10.80;99.90;;;;;;5041100;28;20100;-81
2023/11/14 03:18:03;;;;;;;0.70;0.70;;;10.80;99.90;;;;;;5042550;28;20041;-79
2023/11/14 03:20:29;;;;;;;0.32;0.32;;;10.90;99.90;;;;;;5036344;28;20386;-78
2023/11/14 03:22:58;;;;;;;0.40;0.40;;;11.00;99.90;;;;;;5034280;28;21169;-79
2023/11/14 03:25:23;;;;;;;1.15;1.05;;;11.10;99.90;;;;;;5054118;28;20056;-80
2023/11/14 03:27:50;;;;;;;0.28;0.28;;;11.10;99.90;;;;;;5056231;28;20094;-79
2023/11/14 03:30:16;;;;;;;0.40;0.40;;;11.00;99.90;;;;;;5051238;28;20040;-80
2023/11/14 03:32:42;;;;;;;0.40;0.40;;;10.90;99.90;;;;;;5034351;28;20071;-81
2023/11/14 03:35:08;;;;;;;0.30;0.30;;;10.90;99.90;;;;;;5033039;28;20118;-81
2023/11/14 03:37:34;;;;;;;0.40;0.40;;;10.80;99.90;;;;;;5044022;28;20067;-80
2023/11/14 03:40:00;;;;;;;0.30;0.30;;;10.90;99.90;;;;;;5042486;28;20375;-80
2023/11/14 03:42:25;;;;;;;0.68;0.68;;;10.90;99.90;;;;;;5045067;28;20051;-79
2023/11/14 03:44:51;;;;;;;0.98;0.73;;;10.90;99.90;;;;;;5032835;28;20073;-80
2023/11/14 03:47:17;;;;;;;0.57;0.55;;;10.90;99.90;;;;;;5045840;28;20049;-83
2023/11/14 03:49:42;;;;;;;0.40;0.40;;;10.90;99.90;;;;;;5047606;28;20033;-79
2023/11/14 03:52:08;;;;;;;0.30;0.30;;;10.90;99.90;;;;;;5044452;28;20038;-81
2023/11/14 03:54:35;;;;;;;0.40;0.40;;;10.90;99.90;;;;;;5046784;28;20119;-79
2023/11/14 03:57:01;;;;;;;0.35;0.35;;;11.00;99.90;;;;;;5047840;28;20039;-83
2023/11/14 03:59:27;;;;;;;0.32;0.32;;;10.90;99.90;;;;;;5019997;28;20049;-82
2023/11/14 04:01:52;;;;;;;0.40;0.40;;;10.90;99.90;;;;;;5031342;28;20449;-80
2023/11/14 04:04:19;;;;;;;0.50;0.50;;;10.90;99.90;;;;;;5027948;28;20040;-81
2023/11/14 04:06:45;;;;;;;2.47;1.50;;;10.90;99.90;;;;;;5049973;28;20112;-79
2023/11/14 04:09:10;;;;;;;0.65;0.65;;;10.90;99.90;;;;;;5040561;28;20044;-81
2023/11/14 04:11:47;;;;;;;0.40;0.40;;;10.90;99.90;;;;;;5039209;28;20482;-80
2023/11/14 04:14:13;;;;;;;0.65;0.65;;;10.90;99.90;;;;;;5048103;28;20119;-81
2023/11/14 04:16:38;;;;;;;13.00;2.72;;;10.90;99.90;;;;;;5049464;28;20107;-80
2023/11/14 04:19:04;;;;;;;0.40;0.40;;;10.90;99.90;;;;;;5032722;28;20531;-79
2023/11/14 04:21:30;;;;;;;0.63;0.63;;;10.80;99.90;;;;;;5045502;28;20040;-81
2023/11/14 04:24:05;;;;;;;0.40;0.40;;;10.80;99.90;;;;;;5050599;28;20090;-80
2023/11/14 04:26:31;;;;;;;0.30;0.30;;;10.70;99.90;;;;;;5052601;28;20096;-80
2023/11/14 04:28:57;;;;;;;1.27;0.93;;;10.70;99.90;;;;;;5012968;28;20065;-80
2023/11/14 04:31:22;;;;;;;0.95;0.95;;;10.70;99.90;;;;;;5030113;28;20089;-81
2023/11/14 04:33:54;;;;;;;0.60;0.60;;;10.80;99.90;;;;;;5036383;28;20044;-81
2023/11/14 04:36:19;;;;;;;2.63;1.13;;;10.70;99.90;;;;;;5033468;28;20049;-78
2023/11/14 04:38:45;;;;;;;4.30;0.52;;;10.80;99.90;;;;;;5034008;28;20488;-82
2023/11/14 04:41:16;;;;;;;0.95;0.95;;;10.80;99.90;;;;;;5045112;28;20064;-81
2023/11/14 04:43:42;;;;;;;1.58;1.48;;;10.90;99.90;;;;;;5036989;28;20048;-79
2023/11/14 04:46:09;;;;;;;0.35;0.35;;;10.90;99.90;;;;;;5031225;28;20506;-78
2023/11/14 04:48:35;;;;;;;0.32;0.32;;;10.90;99.90;;;;;;5044127;28;20080;-78
2023/11/14 04:51:02;;;;;;;5.43;0.98;;;10.90;99.90;;;;;;5000342;28;20067;-79
2023/11/14 04:53:29;;;;;;;0.70;0.70;;;11.00;99.90;;;;;;5013075;28;20044;-79
2023/11/14 04:55:55;;;;;;;0.88;0.88;;;11.00;99.90;;;;;;5044983;28;20505;-80
2023/11/14 04:58:21;;;;;;;;;;;11.00;99.90;;;;;;5026476;28;20048;-82
2023/11/14 05:00:47;;;;;;;0.25;0.25;;;11.00;99.90;;;;;;5049715;28;19921;-77
2023/11/14 05:03:13;;;;;;;2.15;1.92;;;11.00;99.90;;;;;;5026216;28;20471;-79
2023/11/14 05:05:39;;;;;;;0.30;0.30;;;11.00;99.90;;;;;;5036747;28;20183;-78
2023/11/14 05:08:04;;;;;;;0.30;0.30;;;11.00;99.90;;;;;;5044102;28;20060;-79
2023/11/14 05:10:30;;;;;;;8.85;4.03;;;11.10;99.90;;;;;;5024904;28;20049;-78
2023/11/14 05:12:56;;;;;;;0.95;0.95;;;11.10;99.90;;;;;;5055047;28;20510;-77
2023/11/14 05:15:22;;;;;;;1.80;0.60;;;11.20;99.90;;;;;;5019929;28;20147;-80
2023/11/14 05:17:49;;;;;;;0.40;0.40;;;11.10;99.90;;;;;;5031614;28;20051;-83
2023/11/14 05:20:16;;;;;;;0.70;0.70;;;11.10;99.90;;;;;;5051585;28;20045;-81
2023/11/14 05:22:41;;;;;;;0.40;0.40;;;11.00;99.90;;;;;;5028803;28;20080;-81
2023/11/14 05:25:10;;;;;;;3.03;0.77;;;10.90;99.90;;;;;;5031683;28;20095;-79
2023/11/14 05:27:37;;;;;;;11.40;2.45;;;10.90;99.90;;;;;;5027216;28;20060;-81
2023/11/14 05:30:08;;;;;;;0.30;0.30;;;10.90;99.90;;;;;;5013178;28;20041;-81
2023/11/14 05:32:36;;;;;;;1.40;1.40;;;10.90;99.90;;;;;;5049682;28;20041;-84
2023/11/14 05:35:02;;;;;;;0.30;0.30;;;10.90;99.90;;;;;;5045296;28;20047;-80
2023/11/14 05:37:28;;;;;;;0.40;0.40;;;10.90;99.90;;;;;;5015524;28;20060;-80
2023/11/14 05:39:55;;;;;;;0.90;0.90;;;11.00;99.90;;;;;;5032714;28;20044;-81
2023/11/14 05:42:21;;;;;;;1.42;1.40;;;11.00;99.90;;;;;;5033572;28;20041;-80
2023/11/14 05:44:48;;;;;;;0.82;0.82;;;11.00;99.90;;;;;;5030783;28;20116;-80
2023/11/14 05:47:18;;;;;;;0.60;0.60;;;11.00;99.90;;;;;;5059011;28;20033;-80
2023/11/14 05:49:44;;;;;;;1.23;1.23;;;10.90;99.90;;;;;;5044671;28;20517;-81
2023/11/14 05:52:13;;;;;;;0.85;0.85;;;10.90;99.90;;;;;;5015614;28;20115;-78
2023/11/14 05:54:38;;;;;;;1.40;1.40;;;10.80;99.90;;;;;;5030904;28;20128;-82
2023/11/14 05:57:04;;;;;;;0.30;0.30;;;10.90;99.90;;;;;;5043080;28;20428;-81
2023/11/14 05:59:30;;;;;;;0.30;0.30;;;10.90;99.90;;;;;;5043481;28;20045;-80
2023/11/14 06:01:56;;;;;;;0.88;0.88;;;10.80;99.90;;;;;;5047113;28;20052;-79
2023/11/14 06:04:21;;;;;;;0.95;0.95;;;10.80;99.90;;;;;;5029864;28;20044;-80
2023/11/14 06:06:48;;;;;;;0.30;0.30;;;10.80;99.90;;;;;;5025368;28;20037;-79
2023/11/14 06:09:14;;;;;;;1.35;1.35;;;10.80;99.90;;;;;;5043553;28;20175;-80
2023/11/14 06:11:39;;;;;;;;;;;10.80;99.90;;;;;;5028317;28;20466;-80
2023/11/14 06:14:05;;;;;;;0.30;0.30;;;10.70;99.90;;;;;;5022922;28;19943;-82
2023/11/14 06:16:31;;;;;;;0.52;0.52;;;10.70;99.90;;;;;;5038700;28;20041;-79
2023/11/14 06:18:57;;;;;;;0.40;0.40;;;10.60;99.90;;;;;;5003207;28;20155;-81
2023/11/14 06:21:23;;;;;;;0.82;0.82;;;10.60;99.90;;;;;;5026586;28;20049;-77
2023/11/14 06:23:48;;;;;;;2.47;1.15;;;10.60;99.90;;;;;;5008830;28;20140;-81
2023/11/14 06:26:14;;;;;;;0.80;0.68;;;10.70;99.90;;;;;;5007848;28;20076;-81
2023/11/14 06:28:40;;;;;;;;;;;10.70;99.90;;;;;;5030587;28;20044;-78
2023/11/14 06:31:06;;;;;;;0.70;0.70;;;10.70;99.90;;;;;;5049923;28;19962;-80
2023/11/14 06:33:32;;;;;;;2.70;0.98;;;10.60;99.90;;;;;;5026397;28;20036;-80
2023/11/14 06:36:01;;;;;;;0.77;0.77;;;10.70;99.90;;;;;;5028503;28;20511;-81
2023/11/14 06:38:27;;;;;;;0.30;0.30;;;10.70;99.90;;;;;;5019565;28;20033;-82
2023/11/14 06:40:52;;;;;;;3.20;0.43;;;10.70;99.90;;;;;;5013076;28;20049;-80
2023/11/14 06:43:18;;;;;;;0.70;0.70;;;10.70;99.90;;;;;;5022729;28;20407;-81
2023/11/14 06:45:45;;;;;;;0.85;0.82;;;10.70;99.90;;;;;;5021405;28;20041;-82
2023/11/14 06:48:11;;;;;;;2.42;1.50;;;10.70;99.90;;;;;;5023244;28;20148;-82
2023/11/14 06:50:42;;;;;;;0.80;0.80;;;10.70;99.90;;;;;;5033025;28;20406;-84
2023/11/14 06:53:10;;;;;;;0.40;0.40;;;10.70;99.90;;;;;;5037304;28;20033;-84
2023/11/14 06:55:37;;;;;;;0.75;0.75;;;10.70;99.90;;;;;;5037300;28;20088;-85
2023/11/14 06:58:11;;;;;;;0.38;0.38;;;10.70;99.90;;;;;;5039801;28;20088;-81
2023/11/14 07:00:37;;;;;;;0.50;0.50;;;10.80;99.90;;;;;;5020081;28;20069;-84
2023/11/14 07:03:05;;;;;;;0.57;0.57;;;10.80;99.90;;;;;;5022205;28;20033;-85
2023/11/14 07:05:34;;;;;;;0.50;0.50;;;10.80;99.90;;;;;;5036411;28;20048;-83
2023/11/14 07:08:02;;;;;;;0.68;0.68;;;10.80;99.90;;;;;;5034203;28;20049;-85
2023/11/14 07:10:32;;;;;;;2.25;2.15;;;10.80;99.90;;;;;;5029959;28;20045;-85
2023/11/14 07:13:02;;;;;;;0.30;0.30;;;10.80;99.90;;;;;;5032186;28;20049;-85
2023/11/14 07:15:29;;;;;;;0.30;0.30;;;10.80;99.90;;;;;;5000243;28;20041;-83
2023/11/14 07:17:56;;;;;;;0.75;0.75;;;10.80;99.90;;;;;;5021591;28;20081;-83
2023/11/14 07:20:23;;;;;;;7.13;0.68;;;10.80;99.90;;;;;;5051956;28;20061;-83
2023/11/14 07:22:51;;;;;;;0.35;0.35;;;10.80;99.90;;;;;;5016392;28;20065;-85
2023/11/14 07:25:17;;;;;;;0.55;0.55;;;10.80;99.90;;;;;;5043690;28;20110;-83
2023/11/14 07:27:49;;;;;;;0.40;0.40;;;10.80;99.90;;;;;;5040467;28;20379;-83
2023/11/14 07:30:16;;;;;;;0.30;0.30;;;10.70;99.90;;;;;;5028576;28;20071;-86
2023/11/14 07:32:42;;;;;;;0.75;0.75;;;10.70;99.90;;;;;;5037990;28;20049;-83
2023/11/14 07:35:11;;;;;;;0.70;0.70;;;10.70;99.90;;;;;;5041829;28;20037;-82
2023/11/14 07:37:38;;;;;;;5.43;2.55;;;10.70;99.90;;;;;;5014411;28;20036;-83
2023/11/14 07:40:06;;;;;;;0.30;0.30;;;10.70;99.90;;;;;;5048539;28;20044;-83
2023/11/14 07:42:31;;;;;;;0.30;0.30;;;10.80;99.90;;;;;;5029360;28;20036;-82
2023/11/14 07:44:57;;;;;;;0.30;0.30;;;10.80;99.90;;;;;;5021951;28;20183;-81
2023/11/14 07:47:23;;;;;;;0.40;0.40;;;10.80;99.90;;;;;;5035398;28;20600;-84
2023/11/14 07:49:50;;;;;;;0.40;0.40;;;10.80;99.90;;;;;;5019635;28;20040;-85
2023/11/14 07:52:16;;;;;;;3.30;2.55;;;10.90;99.90;;;;;;5006236;28;20077;-82
2023/11/14 07:54:42;;;;;;;;;;;11.00;99.90;;;;;;5030574;28;20128;-82
2023/11/14 07:57:08;;;;;;;0.75;0.52;;;11.00;99.90;;;;;;5019559;28;20419;-82
2023/11/14 07:59:33;;;;;;;0.30;0.30;;;11.00;99.90;;;;;;5035240;28;20131;-83
2023/11/14 08:02:07;;;;;;;1.02;0.95;;;11.00;99.90;;;;;;5016489;28;20124;-84
2023/11/14 08:04:33;;;;;;;0.30;0.30;;;11.00;99.90;;;;;;5025700;28;20094;-84
2023/11/14 08:07:00;;;;;;;0.50;0.50;;;11.00;99.90;;;;;;5030572;28;20045;-83
2023/11/14 08:09:28;;;;;;;0.40;0.40;;;11.00;99.90;;;;;;5022079;28;20125;-81
2023/11/14 08:11:54;;;;;;;0.43;0.43;;;11.00;99.90;;;;;;5020025;28;20057;-83
2023/11/14 08:14:20;;;;;;;0.95;0.50;;;11.00;99.90;;;;;;5015653;28;20030;-82
2023/11/14 08:16:49;;;;;;;0.52;0.52;;;11.00;99.90;;;;;;5040825;28;20045;-85
2023/11/14 08:19:16;;;;;;;;;;;11.10;99.90;;;;;;5018497;28;20094;-83
2023/11/14 08:21:42;;;;;;;0.35;0.35;;;11.20;99.90;;;;;;5029863;28;20350;-82
2023/11/14 08:24:09;;;;;;;0.45;0.45;;;11.20;99.90;;;;;;5017621;28;20195;-84
2023/11/14 08:26:37;;;;;;;0.32;0.32;;;11.20;99.90;;;;;;5033671;28;20110;-82
2023/11/14 08:29:04;;;;;;;1.25;1.15;;;11.30;99.90;;;;;;5031028;28;20083;-84
2023/11/14 08:31:29;;;;;;;0.63;0.57;;;11.30;99.90;;;;;;5052402;28;20422;-85
2023/11/14 08:33:58;;;;;;;0.35;0.35;;;11.40;99.90;;;;;;5052847;28;20033;-82
2023/11/14 08:36:24;;;;;;;2.50;2.28;;;11.30;99.90;;;;;;5035991;28;20117;-80
2023/11/14 08:38:51;;;;;;;0.75;0.75;;;11.30;99.90;;;;;;5041660;28;20140;-83
2023/11/14 08:41:22;;;;;;;0.30;0.30;;;11.40;99.90;;;;;;5028470;28;20090;-84
2023/11/14 08:43:48;;;;;;;0.25;0.25;;;11.40;99.90;;;;;;5035451;28;20407;-80
2023/11/14 08:46:20;;;;;;;0.60;0.55;;;11.40;99.90;;;;;;5052968;28;20500;-84
2023/11/14 08:48:47;;;;;;;0.55;0.55;;;11.40;99.90;;;;;;5052652;28;20111;-82
2023/11/14 08:51:17;;;;;;;0.40;0.40;;;11.40;99.90;;;;;;5039299;28;20044;-82
2023/11/14 08:53:45;;;;;;;0.98;0.95;;;11.40;99.90;;;;;;5014729;28;20043;-82
2023/11/14 08:56:11;;;;;;;0.30;0.30;;;11.50;99.90;;;;;;5034823;28;20045;-82
2023/11/14 08:58:37;;;;;;;0.40;0.40;;;11.60;99.90;;;;;;5029584;28;20344;-81
2023/11/14 09:01:04;;;;;;;3.45;0.82;;;11.70;99.90;;;;;;5035412;28;20041;-82
2023/11/14 09:03:31;;;;;;;0.30;0.30;;;11.70;99.90;;;;;;5034044;28;20095;-82
2023/11/14 09:06:04;;;;;;;0.40;0.40;;;11.80;99.90;;;;;;5064687;28;20056;-82
2023/11/14 09:08:34;;;;;;;0.30;0.30;;;11.80;99.90;;;;;;5037115;28;20042;-83
2023/11/14 09:11:00;;;;;;;3.30;0.40;;;11.80;99.90;;;;;;5059979;28;20121;-85
2023/11/14 09:13:42;;;;;;;0.63;0.63;;;11.90;99.90;;;;;;5036259;28;20041;-86
2023/11/14 09:16:10;;;;;;;1.70;1.67;;;11.90;99.90;;;;;;5035099;28;20051;-81
2023/11/14 09:18:38;;;;;;;0.60;0.60;;;11.90;99.90;;;;;;5055563;28;20152;-83
2023/11/14 09:21:05;;;;;;;0.98;0.98;;;11.90;99.90;;;;;;5054109;28;20238;-83
2023/11/14 09:23:33;;;;;;;0.30;0.30;;;11.80;99.90;;;;;;5035398;28;20033;-82
2023/11/14 09:26:07;;;;;;;0.45;0.45;;;11.70;99.90;;;;;;5018754;28;20084;-83
2023/11/14 09:28:34;;;;;;;0.20;0.20;;;11.70;99.90;;;;;;5028814;28;20070;-80
2023/11/14 09:31:04;;;;;;;0.82;0.82;;;11.60;99.90;;;;;;5040213;28;20076;-82
2023/11/14 09:33:35;;;;;;;6.20;2.45;;;11.50;99.90;;;;;;5018591;28;20029;-82
2023/11/14 09:36:01;;;;;;;12.20;0.98;;;11.50;99.90;;;;;;5023012;28;20049;-83
2023/11/14 09:38:27;;;;;;;1.48;1.38;;;11.60;99.90;;;;;;5056410;28;20098;-85
2023/11/14 09:40:53;;;;;;;16.80;1.25;;;11.60;99.90;;;;;;5053640;28;20045;-84
2023/11/14 09:43:22;;;;;;;0.45;0.45;;;11.60;99.90;;;;;;5039028;28;20044;-81
2023/11/14 09:45:50;;;;;;;0.50;0.50;;;11.70;99.90;;;;;;5037476;28;20040;-83
2023/11/14 09:48:21;;;;;;;0.77;0.77;;;11.80;99.90;;;;;;5057147;28;20501;-84
2023/11/14 09:50:47;;;;;;;0.38;0.38;;;11.80;99.90;;;;;;5045503;28;20037;-85
2023/11/14 09:53:13;;;;;;;0.30;0.30;;;11.90;99.90;;;;;;5038427;28;20067;-82
2023/11/14 09:55:40;;;;;;;0.30;0.30;;;11.90;99.90;;;;;;5051934;28;20079;-82
2023/11/14 09:58:10;;;;;;;0.30;0.30;;;12.00;99.90;;;;;;5046424;28;20067;-81
2023/11/14 10:00:38;;;;;;;2.10;1.90;;;12.00;99.90;;;;;;5046082;28;20049;-84
2023/11/14 10:03:05;;;;;;;0.98;0.95;;;12.00;99.90;;;;;;5025151;28;20037;-82
2023/11/14 10:05:37;;;;;;;0.70;0.70;;;12.10;99.90;;;;;;5054390;28;20053;-82
2023/11/14 10:08:04;;;;;;;1.13;1.13;;;12.30;99.90;;;;;;5049697;28;20033;-82
2023/11/14 10:10:31;;;;;;;6.22;0.65;;;12.50;99.90;;;;;;5052624;28;20076;-82
2023/11/14 10:12:57;;;;;;;0.30;0.30;;;12.50;99.90;;;;;;5034249;28;20553;-83
2023/11/14 10:15:30;;;;;;;1.52;1.50;;;12.50;99.90;;;;;;5038053;28;20490;-84
2023/11/14 10:17:57;;;;;;;3.85;1.65;;;12.40;99.90;;;;;;5000336;28;20050;-85
2023/11/14 10:20:44;;;;;;;0.47;0.47;;;12.20;99.90;;;;;;5051974;28;20044;-82
2023/11/14 10:23:11;;;;;;;4.75;1.50;;;12.10;99.90;;;;;;5030615;28;20049;-84
2023/11/14 10:25:37;;;;;;;0.30;0.30;;;12.10;99.90;;;;;;5021862;28;20053;-83
2023/11/14 10:28:11;;;;;;;2.35;1.30;;;11.90;99.90;;;;;;5034885;28;20037;-82
2023/11/14 10:30:49;;;;;;;0.30;0.30;;;11.90;99.90;;;;;;5048469;28;20068;-86
2023/11/14 10:33:15;;;;;;;0.60;0.60;;;11.60;99.90;;;;;;5034632;28;20490;-83
2023/11/14 10:35:41;;;;;;;0.52;0.52;;;11.30;99.90;;;;;;5021523;28;20043;-84
2023/11/14 10:38:21;;;;;;;2.10;0.73;;;10.90;99.90;;;;;;5037262;28;20063;-84
2023/11/14 10:40:54;;;;;;;0.30;0.30;;;10.60;99.90;;;;;;5044029;28;20060;-84
2023/11/14 10:43:31;;;;;;;0.30;0.30;;;10.40;99.90;;;;;;5054155;28;20520;-84
2023/11/14 10:46:01;;;;;;;;;;;10.30;99.90;;;;;;5038075;28;20040;-81
2023/11/14 10:48:26;;;;;;;0.30;0.30;;;10.30;99.90;;;;;;5058960;28;20297;-84
2023/11/14 10:50:53;;;;;;;1.25;1.25;;;10.40;99.90;;;;;;5047311;28;20135;-81
2023/11/14 10:53:19;;;;;;;0.38;0.38;;;10.50;99.90;;;;;;5047575;28;20379;-82
2023/11/14 10:55:47;;;;;;;0.30;0.30;;;10.70;99.90;;;;;;5040181;28;20056;-82
2023/11/14 10:58:14;;;;;;;2.70;1.23;;;10.90;99.90;;;;;;5052642;28;20583;-80
2023/11/14 11:00:40;;;;;;;0.30;0.30;;;10.80;99.90;;;;;;5018004;28;20040;-82
2023/11/14 11:03:07;;;;;;;3.00;1.45;;;10.80;99.90;;;;;;5049908;28;20118;-83
2023/11/14 11:05:43;;;;;;;1.25;1.25;;;10.80;99.90;;;;;;5040784;28;20115;-82
2023/11/14 11:08:13;;;;;;;;;;;11.00;99.90;;;;;;5038195;28;20043;-82
2023/11/14 11:10:39;;;;;;;5.93;2.70;;;11.30;99.90;;;;;;5020268;28;19928;-83
2023/11/14 11:13:20;;;;;;;1.20;1.10;;;11.40;99.90;;;;;;5027879;28;20056;-82
2023/11/14 11:15:51;;;;;;;1.88;1.15;;;11.60;99.90;;;;;;5029915;28;20037;-82
2023/11/14 11:18:34;;;;;;;0.30;0.30;;;11.70;99.90;;;;;;5039257;28;20033;-85
2023/11/14 11:21:13;;;;;;;0.30;0.30;;;11.80;99.90;;;;;;5049369;28;20133;-83
2023/11/14 11:24:17;;;;;;;0.20;0.20;;;11.90;99.90;;;;;;5039266;28;20037;-85
2023/11/14 11:27:05;;;;;;;0.30;0.30;;;12.00;99.90;;;;;;5040572;28;20060;-83
2023/11/14 11:29:49;;;;;;;3.70;0.88;;;12.20;99.90;;;;;;5057059;28;20040;-85
2023/11/14 11:32:39;;;;;;;1.58;1.30;;;12.40;99.90;;;;;;5057573;28;20042;-85
2023/11/14 11:35:19;;;;;;;0.30;0.30;;;12.60;99.90;;;;;;5023715;28;20036;-82
2023/11/14 11:38:14;;;;;;;0.70;0.70;;;12.70;99.90;;;;;;5035169;28;20517;-83
2023/11/14 11:41:04;;;;;;;0.95;0.95;;;12.70;99.90;;;;;;5059986;28;20037;-82
2023/11/14 11:43:34;;;;;;;0.40;0.40;;;12.70;99.90;;;;;;5049087;28;20101;-83
2023/11/14 11:46:00;;;;;;;0.45;0.45;;;12.60;99.90;;;;;;5052355;28;20052;-84
2023/11/14 11:48:34;;;;;;;0.93;0.65;;;12.60;99.90;;;;;;5012963;28;20041;-82
2023/11/14 11:51:21;;;;;;;7.88;0.60;;;12.60;99.90;;;;;;5025494;28;20045;-82
2023/11/14 11:53:53;;;;;;;0.82;0.82;;;12.50;99.90;;;;;;5043656;28;20111;-81
2023/11/14 11:56:37;;;;;;;0.30;0.30;;;12.20;99.90;;;;;;5035637;28;20513;-83
2023/11/14 11:59:03;;;;;;;0.75;0.75;;;12.00;99.90;;;;;;5045558;28;20062;-85
2023/11/14 12:01:29;;;;;;;;;;;11.90;99.90;;;;;;5039235;28;20549;-83
2023/11/14 12:03:59;;;;;;;0.30;0.30;;;12.00;99.90;;;;;;5026975;28;19920;-83
2023/11/14 12:06:25;;;;;;;2.75;0.80;;;12.10;99.90;;;;;;5032395;28;20033;-86
2023/11/14 12:08:52;;;;;;;;;;;12.20;99.90;;;;;;5041480;28;20074;-80
2023/11/14 12:11:18;;;;;;;0.20;0.20;;;12.30;99.90;;;;;;5034068;28;19943;-82
2023/11/14 12:13:53;;;;;;;;;;;12.30;99.90;;;;;;5039657;28;20044;-84
2023/11/14 12:16:22;;;;;;;0.47;0.47;;;12.40;99.90;;;;;;5053003;28;19921;-82
2023/11/14 12:18:48;;;;;;;1.13;0.77;;;12.50;99.90;;;;;;5019101;28;20127;-83
2023/11/14 12:21:17;;;;;;;0.40;0.40;;;12.70;99.90;;;;;;5043093;28;20044;-83
2023/11/14 12:23:47;;;;;;;1.02;0.55;;;12.80;99.90;;;;;;5054236;28;20045;-85
2023/11/14 12:26:14;;;;;;;0.55;0.55;;;12.70;99.90;;;;;;5052565;28;20041;-84
2023/11/14 12:28:43;;;;;;;0.40;0.40;;;12.60;99.90;;;;;;5020627;28;20072;-83
2023/11/14 12:31:11;;;;;;;0.57;0.57;;;12.60;99.90;;;;;;5011170;28;20033;-81
2023/11/14 12:33:50;;;;;;;0.45;0.45;;;12.50;99.90;;;;;;5033521;28;20124;-84
2023/11/14 12:36:26;;;;;;;0.57;0.55;;;12.50;99.90;;;;;;5051266;28;20060;-83
2023/11/14 12:38:53;;;;;;;0.30;0.30;;;12.40;99.90;;;;;;5041558;28;20426;-84
2023/11/14 12:41:21;;;;;;;3.60;2.75;;;12.40;99.90;;;;;;5025854;28;20491;-82
2023/11/14 12:43:49;;;;;;;0.47;0.47;;;12.30;99.90;;;;;;5034695;28;20056;-85
2023/11/14 12:46:33;;;;;;;0.50;0.50;;;12.20;99.90;;;;;;5052247;28;20033;-83
2023/11/14 12:49:10;;;;;;;0.28;0.28;;;12.20;99.90;;;;;;5052073;28;20025;-83
2023/11/14 12:51:44;;;;;;;0.57;0.57;;;12.20;99.90;;;;;;5038691;28;20124;-84
2023/11/14 12:54:11;;;;;;;0.68;0.68;;;12.10;99.90;;;;;;5057786;28;20086;-82
2023/11/14 12:56:38;;;;;;;17.70;2.75;;;12.10;99.90;;;;;;5031558;28;20072;-82